createdAt,value
2018-06-15T00:01:05.918Z,5.83
2018-06-15T00:03:35.789Z,6.27
2018-06-15T00:06:07.121Z,6.00
2018-06-15T00:08:37.228Z,6.10
2018-06-15T00:11:08.520Z,7.00
2018-06-15T00:13:39.997Z,5.83
2018-06-15T00:16:11.558Z,6.37
2018-06-15T00:18:42.528Z,6.90
2018-06-15T00:21:13.581Z,6.67
2018-06-15T00:23:43.442Z,6.57
2018-06-15T00:26:13.213Z,6.40
2018-06-15T00:28:45.996Z,6.37
2018-06-15T00:31:16.089Z,7.17
2018-06-15T00:33:46.795Z,7.23
2018-06-15T00:36:19.481Z,7.30
2018-06-15T00:38:49.943Z,6.47
2018-06-15T00:41:19.809Z,7.07
2018-06-15T00:43:52.810Z,6.63
2018-06-15T00:46:23.737Z,6.07
2018-06-15T00:48:55.349Z,6.57
2018-06-15T00:51:34.672Z,6.87
2018-06-15T00:54:05.500Z,7.00
2018-06-15T00:56:35.624Z,7.37
2018-06-15T00:59:05.540Z,6.37
2018-06-15T01:01:35.970Z,6.83
2018-06-15T01:04:05.936Z,6.57
2018-06-15T01:06:36.803Z,6.83
2018-06-15T01:09:09.020Z,7.27
2018-06-15T01:11:39.058Z,6.30
2018-06-15T01:14:08.949Z,7.20
2018-06-15T01:16:42.162Z,6.60
2018-06-15T01:19:23.445Z,7.03
2018-06-15T01:21:58.142Z,6.30
2018-06-15T01:24:31.012Z,6.93
2018-06-15T01:27:04.426Z,6.80
2018-06-15T01:29:37.467Z,6.47
2018-06-15T01:32:09.027Z,6.13
2018-06-15T01:34:41.877Z,6.77
2018-06-15T01:37:13.167Z,6.53
2018-06-15T01:39:46.193Z,6.80
2018-06-15T01:43:05.187Z,6.93
2018-06-15T01:45:35.464Z,6.97
2018-06-15T01:48:06.006Z,6.47
2018-06-15T01:50:35.114Z,7.00
2018-06-15T01:53:04.359Z,6.53
2018-06-15T01:55:34.434Z,7.00
2018-06-15T01:58:04.207Z,6.57
2018-06-15T02:00:34.093Z,6.90
2018-06-15T02:03:06.083Z,6.57
2018-06-15T02:05:35.809Z,6.73
2018-06-15T02:08:05.560Z,6.87
2018-06-15T02:10:35.708Z,6.43
2018-06-15T02:13:05.468Z,7.00
2018-06-15T02:15:35.388Z,6.57
2018-06-15T02:18:05.564Z,6.30
2018-06-15T02:20:36.139Z,6.70
2018-06-15T02:23:06.086Z,6.83
2018-06-15T02:25:36.179Z,6.97
2018-06-15T02:28:06.908Z,6.90
2018-06-15T02:30:37.010Z,6.40
2018-06-15T02:33:06.830Z,6.57
2018-06-15T02:35:37.416Z,6.47
2018-06-15T02:38:07.292Z,6.97
2018-06-15T02:40:38.146Z,6.43
2018-06-15T02:43:08.582Z,6.60
2018-06-15T02:45:39.481Z,6.13
2018-06-15T02:48:09.292Z,6.57
2018-06-15T02:50:39.163Z,6.40
2018-06-15T02:53:09.022Z,6.80
2018-06-15T02:55:39.594Z,6.70
2018-06-15T02:58:09.717Z,7.20
2018-06-15T03:00:40.238Z,6.83
2018-06-15T03:03:10.508Z,6.53
2018-06-15T03:05:41.146Z,6.60
2018-06-15T03:08:13.247Z,6.43
2018-06-15T03:10:43.129Z,6.37
2018-06-15T03:13:13.101Z,6.47
2018-06-15T03:15:43.365Z,6.53
2018-06-15T03:18:13.871Z,6.63
2018-06-15T03:20:51.567Z,7.10
2018-06-15T03:23:21.500Z,6.63
2018-06-15T03:25:51.455Z,6.60
2018-06-15T03:28:21.272Z,6.73
2018-06-15T03:30:51.191Z,6.50
2018-06-15T03:33:35.063Z,5.97
2018-06-15T03:36:04.817Z,6.47
2018-06-15T03:38:34.654Z,5.83
2018-06-15T03:41:05.684Z,7.10
2018-06-15T03:43:35.430Z,6.73
2018-06-15T03:46:05.924Z,6.73
2018-06-15T03:48:36.421Z,6.67
2018-06-15T03:51:06.647Z,6.77
2018-06-15T03:53:36.585Z,7.27
2018-06-15T03:56:07.449Z,7.00
2018-06-15T03:58:37.764Z,6.83
2018-06-15T04:01:08.150Z,6.70
2018-06-15T04:03:38.055Z,6.97
2018-06-15T04:06:08.193Z,6.90
2018-06-15T04:08:38.173Z,6.63
2018-06-15T04:11:08.385Z,6.40
2018-06-15T04:13:38.645Z,6.70
2018-06-15T04:16:08.860Z,6.93
2018-06-15T04:18:38.948Z,6.77
2018-06-15T04:21:10.699Z,6.70
2018-06-15T04:23:40.832Z,6.40
2018-06-15T04:26:10.982Z,6.10
2018-06-15T04:28:40.211Z,7.07
2018-06-15T04:31:10.633Z,6.87
2018-06-15T04:33:42.959Z,6.40
2018-06-15T04:36:12.821Z,6.70
2018-06-15T04:38:44.124Z,6.20
2018-06-15T04:41:17.056Z,6.67
2018-06-15T04:43:47.036Z,6.07
2018-06-15T04:46:17.797Z,6.50
2018-06-15T04:48:48.996Z,6.37
2018-06-15T04:51:19.061Z,6.47
2018-06-15T04:53:50.002Z,5.97
2018-06-15T04:56:19.804Z,5.60
2018-06-15T04:59:52.509Z,5.67
2018-06-15T05:02:23.209Z,5.17
2018-06-15T05:04:53.073Z,5.80
2018-06-15T05:07:27.478Z,5.40
2018-06-15T05:09:59.360Z,5.77
2018-06-15T05:12:30.983Z,4.70
2018-06-15T05:15:02.475Z,5.13
2018-06-15T05:17:33.919Z,4.57
2018-06-15T05:20:07.427Z,5.17
2018-06-15T05:22:41.503Z,4.93
2018-06-15T05:25:12.241Z,5.20
2018-06-15T05:27:59.151Z,5.17
2018-06-15T05:30:29.326Z,4.90
2018-06-15T05:32:59.723Z,5.40
2018-06-15T05:35:33.434Z,5.10
2018-06-15T05:38:03.559Z,5.30
2018-06-15T05:40:33.800Z,4.97
2018-06-15T05:43:04.335Z,5.07
2018-06-15T05:45:34.319Z,4.30
2018-06-15T05:48:06.160Z,4.00
2018-06-15T05:50:37.910Z,4.23
2018-06-15T05:53:08.625Z,4.40
2018-06-15T05:55:40.467Z,4.57
2018-06-15T05:58:11.100Z,4.30
2018-06-15T06:00:41.362Z,4.20
2018-06-15T06:03:13.632Z,5.60
2018-06-15T06:05:44.181Z,4.97
2018-06-15T06:08:14.997Z,3.80
2018-06-15T06:10:45.021Z,3.37
2018-06-15T06:13:15.786Z,3.80
2018-06-15T06:15:47.512Z,3.20
2018-06-15T06:18:18.242Z,3.70
2018-06-15T06:20:48.504Z,3.10
2018-06-15T06:23:19.617Z,3.33
2018-06-15T06:25:50.027Z,2.77
2018-06-15T06:28:24.411Z,3.63
2018-06-15T06:30:58.829Z,2.93
2018-06-15T06:33:34.697Z,3.30
2018-06-15T06:36:05.634Z,3.30
2018-06-15T06:38:36.478Z,2.97
2018-06-15T06:41:06.458Z,3.00
2018-06-15T06:43:39.540Z,3.20
2018-06-15T06:46:10.419Z,3.10
2018-06-15T06:48:39.870Z,3.10
2018-06-15T06:51:10.110Z,2.87
2018-06-15T06:53:41.586Z,2.77
2018-06-15T06:56:12.182Z,2.30
2018-06-15T06:58:43.429Z,2.70
2018-06-15T07:01:13.480Z,2.60
2018-06-15T07:03:44.838Z,2.90
2018-06-15T07:06:16.351Z,2.90
2018-06-15T07:08:46.454Z,2.83
2018-06-15T07:11:20.642Z,2.70
2018-06-15T07:13:51.779Z,2.70
2018-06-15T07:16:21.696Z,2.77
2018-06-15T07:18:52.068Z,2.53
2018-06-15T07:21:23.473Z,2.80
2018-06-15T07:23:54.645Z,2.70
2018-06-15T07:26:27.265Z,2.73
2018-06-15T07:29:00.478Z,2.47
2018-06-15T07:31:31.859Z,2.50
2018-06-15T07:34:09.970Z,2.73
2018-06-15T07:36:40.635Z,2.80
2018-06-15T07:39:13.645Z,2.87
2018-06-15T07:41:47.487Z,2.37
2018-06-15T07:44:18.800Z,2.93
2018-06-15T07:46:49.353Z,3.47
2018-06-15T07:49:22.313Z,2.90
2018-06-15T07:51:54.526Z,2.50
2018-06-15T07:54:25.679Z,2.30
2018-06-15T07:57:00.032Z,2.20
2018-06-15T07:59:31.026Z,2.53
2018-06-15T08:02:02.735Z,2.17
2018-06-15T08:04:35.028Z,2.47
2018-06-15T08:07:08.751Z,2.10
2018-06-15T08:09:41.671Z,2.40
2018-06-15T08:12:14.255Z,7.53
2018-06-15T08:14:47.541Z,2.20
2018-06-15T08:17:19.481Z,3.47
2018-06-15T08:19:52.487Z,2.60
2018-06-15T08:22:22.914Z,2.33
2018-06-15T08:24:54.483Z,2.10
2018-06-15T08:27:25.766Z,2.03
2018-06-15T08:30:00.437Z,1.80
2018-06-15T08:32:33.144Z,2.27
2018-06-15T08:35:07.359Z,2.17
2018-06-15T08:37:38.544Z,2.10
2018-06-15T08:40:12.741Z,1.87
2018-06-15T08:42:46.331Z,1.77
2018-06-15T08:45:18.768Z,1.80
2018-06-15T08:47:49.858Z,1.93
2018-06-15T08:50:20.491Z,2.00
2018-06-15T08:52:53.008Z,2.00
2018-06-15T08:55:23.736Z,2.00
2018-06-15T08:57:57.610Z,1.90
2018-06-15T09:00:29.315Z,2.03
2018-06-15T09:03:07.019Z,2.57
2018-06-15T09:05:39.248Z,1.90
2018-06-15T09:08:11.565Z,1.90
2018-06-15T09:10:43.459Z,2.43
2018-06-15T09:13:15.553Z,2.50
2018-06-15T09:15:48.510Z,1.67
2018-06-15T09:18:20.418Z,2.20
2018-06-15T09:20:53.401Z,1.90
2018-06-15T09:23:27.041Z,2.07
2018-06-15T09:25:58.220Z,2.10
2018-06-15T09:28:28.578Z,3.13
2018-06-15T09:30:59.766Z,6.13
2018-06-15T09:33:30.718Z,3.33
2018-06-15T09:36:00.215Z,2.03
2018-06-15T09:38:32.765Z,2.07
2018-06-15T09:41:05.813Z,2.03
2018-06-15T09:43:37.466Z,1.90
2018-06-15T09:46:08.286Z,2.10
2018-06-15T09:48:42.572Z,1.80
2018-06-15T09:51:16.061Z,2.67
2018-06-15T09:53:51.483Z,1.93
2018-06-15T09:56:22.124Z,2.10
2018-06-15T10:01:54.833Z,2.00
2018-06-15T10:04:27.362Z,1.90
2018-06-15T10:07:03.762Z,1.77
2018-06-15T10:09:42.236Z,2.10
2018-06-15T10:12:21.195Z,1.90
2018-06-15T10:14:55.485Z,1.93
2018-06-15T10:17:30.849Z,1.80
2018-06-15T10:20:08.891Z,1.90
2018-06-15T10:22:40.738Z,2.20
2018-06-15T10:25:14.180Z,2.30
2018-06-15T10:27:45.089Z,3.10
2018-06-15T10:30:16.889Z,2.43
2018-06-15T10:32:49.096Z,6.30
2018-06-15T10:35:22.926Z,3.23
2018-06-15T10:37:59.959Z,5.67
2018-06-15T10:40:37.136Z,1.90
2018-06-15T10:43:13.303Z,2.00
2018-06-15T10:45:46.348Z,2.00
2018-06-15T10:48:20.943Z,2.20
2018-06-15T10:50:53.000Z,2.00
2018-06-15T10:53:25.429Z,2.13
2018-06-15T10:55:58.794Z,1.83
2018-06-15T10:58:30.896Z,2.30
2018-06-15T11:01:03.418Z,1.90
2018-06-15T11:03:37.300Z,2.10
2018-06-15T11:06:10.056Z,2.00
2018-06-15T11:08:43.571Z,2.07
2018-06-15T11:11:14.883Z,1.80
2018-06-15T11:13:49.316Z,1.83
2018-06-15T11:16:21.935Z,1.80
2018-06-15T11:18:53.585Z,1.50
2018-06-15T11:21:28.302Z,2.00
2018-06-15T11:23:59.953Z,2.00
2018-06-15T11:26:30.872Z,1.70
2018-06-15T11:29:04.714Z,1.60
2018-06-15T11:31:48.008Z,2.10
2018-06-15T11:34:19.284Z,1.53
2018-06-15T11:36:50.593Z,2.10
2018-06-15T11:39:25.969Z,1.57
2018-06-15T11:41:56.668Z,1.77
2018-06-15T11:44:28.409Z,1.87
2018-06-15T11:47:03.331Z,2.37
2018-06-15T11:49:36.501Z,1.80
2018-06-15T11:52:08.944Z,1.97
2018-06-15T11:54:39.523Z,1.80
2018-06-15T11:57:11.511Z,1.60
2018-06-15T11:59:43.969Z,1.60
2018-06-15T12:02:16.877Z,1.60
2018-06-15T12:04:50.369Z,2.00
2018-06-15T12:07:21.988Z,1.80
2018-06-15T12:09:55.723Z,1.97
2018-06-15T12:12:28.101Z,1.80
2018-06-15T12:15:00.829Z,2.10
2018-06-15T12:17:32.733Z,2.40
2018-06-15T12:20:12.347Z,2.20
2018-06-15T12:25:48.834Z,1.83
2018-06-15T12:28:28.504Z,2.37
2018-06-15T12:31:04.628Z,2.10
2018-06-15T12:33:37.202Z,2.00
2018-06-15T12:36:08.552Z,1.93
2018-06-15T12:38:41.148Z,1.80
2018-06-15T12:41:14.487Z,1.40
2018-06-15T12:43:48.155Z,1.60
2018-06-15T12:46:23.494Z,1.93
2018-06-15T12:49:04.642Z,1.53
2018-06-15T12:51:45.211Z,1.80
2018-06-15T12:54:25.097Z,1.80
2018-06-15T12:57:00.074Z,1.67
2018-06-15T12:59:37.572Z,1.50
2018-06-15T13:02:21.439Z,1.90
2018-06-15T13:04:56.740Z,1.50
2018-06-15T13:07:30.701Z,1.40
2018-06-15T13:10:08.713Z,1.50
2018-06-15T13:12:39.605Z,1.60
2018-06-15T13:15:18.542Z,2.10
2018-06-15T13:17:53.639Z,1.50
2018-06-15T13:20:25.036Z,1.60
2018-06-15T13:22:59.174Z,1.60
2018-06-15T13:25:31.954Z,1.63
2018-06-15T13:28:08.185Z,1.50
2018-06-15T13:30:40.400Z,1.70
2018-06-15T13:33:17.906Z,1.50
2018-06-15T13:35:50.280Z,1.67
2018-06-15T13:38:25.437Z,1.70
2018-06-15T13:40:58.653Z,1.47
2018-06-15T13:43:34.722Z,1.90
2018-06-15T13:46:06.198Z,1.50
2018-06-15T13:48:37.542Z,1.60
2018-06-15T13:51:11.332Z,2.57
2018-06-15T13:53:43.401Z,1.70
2018-06-15T13:56:17.730Z,3.97
2018-06-15T13:58:49.490Z,1.50
2018-06-15T14:01:20.704Z,1.50
2018-06-15T14:03:55.172Z,1.40
2018-06-15T14:06:28.774Z,1.30
2018-06-15T14:08:59.529Z,1.67
2018-06-15T14:14:22.115Z,21.40
2018-06-15T14:16:55.044Z,1.93
2018-06-15T14:19:28.401Z,1.87
2018-06-15T14:22:04.857Z,1.80
2018-06-15T14:24:37.340Z,1.70
2018-06-15T14:27:11.767Z,1.60
2018-06-15T14:29:44.227Z,1.57
2018-06-15T14:32:20.482Z,1.70
2018-06-15T14:34:52.547Z,2.80
2018-06-15T14:37:45.472Z,1.67
2018-06-15T14:40:18.608Z,1.70
2018-06-15T14:42:53.182Z,2.70
2018-06-15T14:45:25.281Z,2.50
2018-06-15T14:47:59.248Z,3.57
2018-06-15T14:50:33.443Z,2.00
2018-06-15T14:53:09.519Z,1.50
2018-06-15T14:55:40.634Z,1.83
2018-06-15T14:58:11.516Z,3.87
2018-06-15T15:00:44.022Z,1.87
2018-06-15T15:03:16.668Z,1.67
2018-06-15T15:05:52.594Z,1.67
2018-06-15T15:08:25.473Z,1.30
2018-06-15T15:10:58.411Z,1.60
2018-06-15T15:13:33.850Z,1.57
2018-06-15T15:16:09.063Z,1.80
2018-06-15T15:18:42.568Z,1.63
2018-06-15T15:21:20.660Z,2.20
2018-06-15T15:24:14.777Z,1.50
2018-06-15T15:26:52.026Z,2.03
2018-06-15T15:29:26.115Z,1.70
2018-06-15T15:32:03.548Z,1.60
2018-06-15T15:34:36.873Z,1.60
2018-06-15T15:37:12.321Z,1.77
2018-06-15T15:39:43.257Z,1.40
2018-06-15T15:42:20.594Z,1.60
2018-06-15T15:44:57.677Z,1.63
2018-06-15T15:47:30.412Z,1.50
2018-06-15T15:50:06.818Z,1.77
2018-06-15T15:52:42.079Z,2.37
2018-06-15T15:55:14.465Z,2.33
2018-06-15T15:57:59.351Z,1.63
2018-06-15T16:00:31.121Z,1.47
2018-06-15T16:03:07.285Z,1.70
2018-06-15T16:05:40.283Z,2.10
2018-06-15T16:08:15.331Z,1.60
2018-06-15T16:10:48.573Z,1.50
2018-06-15T16:13:21.376Z,1.37
2018-06-15T16:15:53.015Z,1.67
2018-06-15T16:18:23.886Z,1.20
2018-06-15T16:21:07.411Z,1.57
2018-06-15T16:23:48.159Z,1.67
2018-06-15T16:26:20.035Z,1.87
2018-06-15T16:28:51.673Z,1.53
2018-06-15T16:31:23.074Z,1.70
2018-06-15T16:33:55.407Z,1.63
2018-06-15T16:36:32.350Z,1.83
2018-06-15T16:39:06.832Z,1.73
2018-06-15T16:41:39.567Z,1.77
2018-06-15T16:44:15.522Z,1.60
2018-06-15T16:46:46.131Z,1.67
2018-06-15T16:51:57.038Z,1.77
2018-06-15T16:54:27.978Z,1.60
2018-06-15T16:57:03.312Z,1.67
2018-06-15T16:59:36.517Z,1.60
2018-06-15T17:02:09.919Z,1.80
2018-06-15T17:07:47.900Z,1.77
2018-06-15T17:10:19.938Z,1.50
2018-06-15T17:12:52.404Z,1.60
2018-06-15T17:15:29.217Z,1.90
2018-06-15T17:18:02.251Z,2.10
2018-06-15T17:20:33.732Z,2.03
2018-06-15T17:23:05.424Z,1.60
2018-06-15T17:25:37.281Z,2.00
2018-06-15T17:28:08.240Z,2.10
2018-06-15T17:30:48.765Z,2.00
2018-06-15T17:33:22.167Z,2.20
2018-06-15T17:35:57.508Z,2.07
2018-06-15T17:38:31.166Z,2.03
2018-06-15T17:41:05.303Z,2.40
2018-06-15T17:43:35.281Z,2.20
2018-06-15T17:46:08.012Z,2.30
2018-06-15T17:48:42.809Z,1.80
2018-06-15T17:51:14.996Z,2.20
2018-06-15T17:53:52.772Z,2.10
2018-06-15T17:56:24.067Z,2.20
2018-06-15T17:58:55.928Z,2.17
2018-06-15T18:01:31.302Z,2.20
2018-06-15T18:04:02.616Z,2.27
2018-06-15T18:06:40.482Z,2.00
2018-06-15T18:09:16.766Z,2.17
2018-06-15T18:11:47.895Z,2.07
2018-06-15T18:14:19.059Z,1.87
2018-06-15T18:16:51.163Z,2.07
2018-06-15T18:19:26.385Z,2.10
2018-06-15T18:21:58.905Z,2.23
2018-06-15T18:24:31.081Z,2.20
2018-06-15T18:27:03.953Z,2.10
2018-06-15T18:29:34.926Z,2.57
2018-06-15T18:32:06.922Z,2.57
2018-06-15T18:34:39.845Z,2.23
2018-06-15T18:37:13.593Z,2.33
2018-06-15T18:39:45.787Z,2.23
2018-06-15T18:42:19.790Z,2.60
2018-06-15T18:44:53.860Z,2.63
2018-06-15T18:47:28.438Z,2.67
2018-06-15T18:50:00.316Z,2.70
2018-06-15T18:52:34.303Z,2.80
2018-06-15T18:55:05.888Z,2.40
2018-06-15T18:57:37.589Z,2.70
2018-06-15T19:00:18.803Z,2.50
2018-06-15T19:08:20.648Z,2.37
2018-06-15T19:10:52.628Z,3.50
2018-06-15T19:13:25.445Z,3.13
2018-06-15T19:15:57.917Z,2.77
2018-06-15T19:18:32.565Z,3.20
2018-06-15T19:21:05.798Z,2.80
2018-06-15T19:23:40.829Z,2.97
2018-06-15T19:26:13.230Z,3.43
2018-06-15T19:28:45.997Z,2.73
2018-06-15T19:31:19.662Z,4.40
2018-06-15T19:33:53.081Z,3.20
2018-06-15T19:36:25.530Z,3.10
2018-06-15T19:39:06.357Z,3.20
2018-06-15T19:41:37.830Z,3.20
2018-06-15T19:44:27.386Z,3.37
2018-06-15T19:46:57.816Z,3.27
2018-06-15T19:49:27.876Z,2.60
2018-06-15T19:51:59.696Z,2.83
2018-06-15T19:54:35.435Z,3.27
2018-06-15T19:57:07.583Z,3.40
2018-06-15T19:59:38.134Z,2.97
2018-06-15T20:02:14.008Z,2.90
2018-06-15T20:04:57.065Z,3.10
2018-06-15T20:08:00.610Z,2.97
2018-06-15T20:10:34.753Z,2.80
2018-06-15T20:13:05.441Z,3.07
2018-06-15T20:15:37.499Z,4.23
2018-06-15T20:18:09.851Z,3.00
2018-06-15T20:20:41.463Z,2.80
2018-06-15T20:23:20.984Z,2.83
2018-06-15T20:25:55.301Z,3.27
2018-06-15T20:28:32.179Z,3.70
2018-06-15T20:31:05.004Z,3.70
2018-06-15T20:33:39.975Z,3.60
2018-06-15T20:36:14.955Z,3.40
2018-06-15T20:38:49.567Z,3.13
2018-06-15T20:41:21.393Z,3.07
2018-06-15T20:43:54.963Z,3.27
2018-06-15T20:46:31.604Z,3.60
2018-06-15T20:49:06.805Z,3.50
2018-06-15T20:51:39.738Z,3.13
2018-06-15T20:54:11.312Z,3.90
2018-06-15T20:56:48.575Z,3.00
2018-06-15T20:59:19.824Z,2.83
2018-06-15T21:04:38.765Z,3.00
2018-06-15T21:07:11.069Z,3.73
2018-06-15T21:09:47.187Z,3.77
2018-06-15T21:12:24.819Z,3.37
2018-06-15T21:14:59.037Z,3.30
2018-06-15T21:17:33.250Z,2.90
2018-06-15T21:20:12.341Z,3.23
2018-06-15T21:22:46.563Z,2.87
2018-06-15T21:25:25.795Z,3.23
2018-06-15T21:28:05.058Z,3.40
2018-06-15T21:30:40.356Z,3.60
2018-06-15T21:33:13.619Z,3.50
2018-06-15T21:35:52.088Z,3.40
2018-06-15T21:38:27.413Z,3.30
2018-06-15T21:40:59.566Z,3.67
2018-06-15T21:43:32.201Z,3.53
2018-06-15T21:46:04.717Z,3.37
2018-06-15T21:48:36.253Z,3.53
2018-06-15T21:51:10.008Z,3.60
2018-06-15T21:53:41.890Z,3.70
2018-06-15T21:56:14.753Z,3.47
2018-06-15T21:58:46.644Z,3.53
2018-06-15T22:01:19.745Z,3.77
2018-06-15T22:03:54.039Z,3.37
2018-06-15T22:06:50.589Z,3.33
2018-06-15T22:09:26.582Z,3.57
2018-06-15T22:11:58.943Z,3.30
2018-06-15T22:14:30.331Z,3.70
2018-06-15T22:17:16.638Z,3.60
2018-06-15T22:19:48.295Z,3.83
2018-06-15T22:22:20.900Z,3.20
2018-06-15T22:24:59.091Z,3.50
2018-06-15T22:27:31.376Z,3.57
2018-06-15T22:30:11.504Z,3.40
2018-06-15T22:32:44.287Z,3.70
2018-06-15T22:35:15.102Z,3.30
2018-06-15T22:37:45.613Z,3.90
2018-06-15T22:40:16.390Z,3.87
2018-06-15T22:42:48.296Z,3.27
2018-06-15T22:45:18.561Z,3.67
2018-06-15T22:47:50.759Z,3.30
2018-06-15T22:50:22.160Z,3.40
2018-06-15T22:52:52.703Z,3.63
2018-06-15T22:55:23.940Z,3.30
2018-06-15T22:57:56.144Z,3.80
2018-06-15T23:00:27.266Z,3.67
2018-06-15T23:02:58.675Z,4.00
2018-06-15T23:05:29.589Z,3.27
2018-06-15T23:08:03.004Z,3.83
2018-06-15T23:10:33.437Z,3.37
2018-06-15T23:13:05.344Z,4.00
2018-06-15T23:15:35.729Z,3.73
2018-06-15T23:18:06.160Z,3.57
2018-06-15T23:20:39.658Z,3.70
2018-06-15T23:23:11.899Z,3.57
2018-06-15T23:25:43.619Z,3.80
2018-06-15T23:28:16.112Z,3.43
2018-06-15T23:30:46.093Z,3.90
2018-06-15T23:33:18.020Z,3.57
2018-06-15T23:35:48.738Z,3.47
2018-06-15T23:38:19.281Z,3.87
2018-06-15T23:40:49.792Z,4.07
2018-06-15T23:43:21.068Z,4.30
2018-06-15T23:45:52.518Z,3.90
2018-06-15T23:48:25.365Z,3.73
2018-06-15T23:50:55.805Z,3.60
2018-06-15T23:53:27.478Z,3.70
2018-06-15T23:56:00.301Z,3.50
2018-06-15T23:58:31.741Z,4.03
